METAR Data
IDs: Format: Raw Decoded Include TAF

Data at: 2347 UTC 24 Apr 2019

METAR for:KLWD (Lamoni Muni, IA, US)
Text:KLWD 242253Z AUTO 15004KT 10SM CLR 18/11 A2981 RMK AO2 SLP095 T01780111
Temperature: 17.8°C ( 64°F)
Dewpoint: 11.1°C ( 52°F) [RH = 65%]
Pressure (altimeter):29.81 inches Hg (1009.6 mb) [Sea level pressure: 1009.5 mb]
Winds:from the SSE (150 degrees) at 5 MPH (4 knots; 2.1 m/s)
Visibility:10 or more sm (16+ km)
Ceiling:at least 12,000 feet AGL
Clouds:sky clear below 12,000 feet AGL
QC Flag:automated observation with no human augmentation